Yakutat Airport
PAYA : now visible

Airfield :











YOU CAN JOIN US ON...

 
LOGIN :

Register | Disclaimer

   EN    FR    IT 

 









Legend :    VFR   Marginal VFR   IFR   Intensive IFR   Very Intensive IFR
Visi :
Ceiling :
>= 8 km
>= 3000ft
5 to 8 km
1000 to 3000 ft
1500m to 5 km
500 to 1000 ft
800 to 1500m
200 to 500 ft
< 800m
< 200 ft
Symbols :   Thunderstorms  Fog  Heavy snow  Heavy precipitations  Wind > 20 kt






- Airport Elevation : 33 ft


PAYA - Yakutat

CURRENT METAR :
  • 032253Z AUTO 00000KT 10SM OVC065 02/M01 A2899 RMK AO2 SLP817 T00221006 TSNO

EXPIRED METARs :
  • 032153Z AUTO 36004KT 10SM OVC080 03/M01 A2899 RMK AO2 SLP818 T00281011 TSNO
  • 032053Z AUTO 00000KT 10SM OVC075 04/M02 A2897 RMK AO2 SLP812 T00391022 52031 TSNO
  • 031953Z AUTO 00000KT 10SM BKN060 OVC075 03/M03 A2894 RMK AO2 SLP802 T00331033 TSNO

TAF PAYA
Valid from the 04 at 00:00 until the 05 at 00:00 UTC


032327Z 0400/0424 VRB05KT P6SM VCSH OVC050
FM040600 09005KT 6SM -SNRA SCT025 OVC035
FM041400 08008G16KT 5SM -RASN BKN025 OVC040 WS020/14035KT AMD LTD TO CLD VIS AND WIND
PAZA FIR / North America



MET'MAP, your aeronautical weather chart ! - Copyright ORBIFLY December 2007 - Disclaimer

ORBIFLY MET'MAP TEAM :

Programming & Development : Alexandra Zaïnal
Original concept : Baudouin d'Aumeries
Technical & hardware support : Manuel Goepfert
Assistance : Marc-Olivier Méhu




SOURCES & CREDITS :

   NOAA       Earth
Advisory